Date,TemperatureHighF,TemperatureAvgF,TemperatureLowF,DewpointHighF,DewpointAvgF,DewpointLowF,HumidityHigh,HumidityAvg,HumidityLow,PressureMaxIn,PressureMinIn,WindSpeedMaxMPH,WindSpeedAvgMPH,GustSpeedMaxMPH,PrecipitationSumIn
2013-7-1,71,61,56,62,56,49,93,83,70,29.92,29.74,8,5,0,0.00
2013-7-2,65,61,59,61,56,51,93,83,73,30.09,29.91,9,6,0,0.00
2013-7-3,67,61,59,63,55,50,93,80,72,30.19,30.09,11,6,0,0.00
2013-7-4,72,64,59,65,58,51,93,80,71,30.22,30.11,11,6,0,0.00
2013-7-5,72,64,60,66,59,52,93,85,76,30.16,30.09,11,8,0,0.00
2013-7-6,75,65,60,65,61,56,93,86,66,30.15,30.04,10,6,0,0.00
2013-7-7,70,62,58,65,58,51,93,87,75,30.08,29.98,12,7,0,0.00
2013-7-8,68,60,54,62,54,47,94,84,73,30.14,30.04,12,9,0,0.00
2013-7-9,74,65,60,64,60,56,93,86,65,30.14,30.01,11,8,0,0.00
2013-7-10,75,63,58,67,59,-100,93,88,74,30.03,29.85,12,8,0,0.00
2013-7-11,70,62,57,63,57,49,93,85,75,29.89,29.84,11,4,0,0.00
2013-7-12,62,57,53,57,51,45,94,83,74,30.04,29.87,12,8,0,0.00
2013-7-13,66,59,55,62,53,47,93,80,72,30.19,30.04,15,9,0,0.00
2013-7-14,74,64,58,63,58,51,93,82,66,30.29,30.18,17,8,0,0.00
2013-7-15,76,67,60,66,60,53,92,77,62,30.30,30.21,8,3,0,0.00
2013-7-16,79,68,63,67,63,60,93,83,66,30.24,30.18,8,4,0,0.00
2013-7-17,73,68,64,68,64,61,93,88,76,30.22,30.11,8,5,0,0.00
2013-7-18,80,69,64,68,65,62,93,86,67,30.14,30.02,7,4,0,0.00
2013-7-19,81,68,59,69,64,54,93,87,59,30.02,29.88,16,7,0,0.00
2013-7-20,77,66,62,67,59,53,93,80,64,29.92,29.83,12,9,0,0.00
2013-7-21,72,64,59,66,60,52,93,87,70,29.95,29.86,11,5,0,0.00
2013-7-22,75,64,60,65,58,53,93,81,68,29.91,29.73,10,5,0,0.00
2013-7-23,70,62,58,63,56,50,93,79,72,29.77,29.69,15,11,0,0.00
2013-7-24,70,61,52,60,54,49,93,79,68,29.86,29.70,12,7,0,0.00
2013-7-25,67,57,50,54,51,46,94,83,60,30.03,29.84,8,3,0,0.00
2013-7-26,72,61,51,57,52,48,92,75,51,30.06,29.99,6,3,0,0.00
2013-7-27,61,58,56,58,52,48,94,81,73,29.99,29.87,10,6,0,0.00
2013-7-28,66,59,52,57,52,46,93,80,70,29.98,29.85,15,8,0,0.00
2013-7-29,62,53,47,50,47,44,94,83,61,30.21,29.98,10,7,0,0.00
2013-7-30,69,58,51,56,52,48,93,81,57,30.22,30.13,7,4,0,0.00
2013-7-31,64,57,53,58,52,47,93,84,74,30.13,29.96,9,5,0,0.00